Ибреси

Карта отелей и гостиниц, располагающихся рядом с аэропортом Ибреси :

Ибреси Чувашия 55° 17' 1.0788" N, 47° 4' 29.28" E
Ибреси Чувашия 55° 17' 1.0788" N, 47° 4' 29.28" E
Код аэродрома ИКАО
ZB18
Код аэродрома RU
ЗБ18
Координаты
N55.28363° E047.07480°
Превышение над уровнем моря
182
Основная полоса
04/22
Курс магнитный
040/220
Длина основной ВПП
410
Ширина основной ВПП
18
Покрытие основной ВПП
Твёрдое (асфальт)
Освещение ВПП
Нет
Тип: 
Аэродром
Класс аэродрома: 
Принадлежность: 
ГА
Статус: 
Недействующий
Сайт: 
E-mail аэродрома: 
Страна: 
Россия
Регион: 
Чувашия
Город: 
Дополнительная информация: 
Площадка АХР. ВПП в хорошем состоянии, ночью гоняют автомобилисты.

Найти трансфер

С помощью этой формы Вы можете найти трансфер из аэропорта Ибреси в город, аэропорт или вокзал:

Карта места

Javascript is required to view this map.

Погода в аэропортах:

Авиационная погода в Мирном

Регион: 
Погода METAR: 
UERR 171700Z 29005G10MPS 9999 DRSN NSC M15/M22 Q1002 R25/890340 NOSIG RMK QFE721/0961
Время наблюдения
2021-04-17T17:00:00Z
Температура C
-15.0
Точка росы
-22.0
Направление ветра
290
Скорость ветра (узлы)
10
Метео видимость
6.21
Явления погоды
DRSN
Условия полета
VFR
Аэропорт подробнее: 

Авиационная погода в Ботсфьорде

Регион: 
Погода METAR: 
ENBS 161920Z 27037G47KT 9999 VCSH SCT020 SCT041 03/01 Q1023
Время наблюдения
2021-04-16T19:20:00Z
Температура C
3.0
Точка росы
1.0
Направление ветра
270
Скорость ветра (узлы)
37
Метео видимость
6.21
Явления погоды
VCSH
Условия полета
VFR

Авиационная погода в Ставрополе

Регион: 
Погода METAR: 
URMT 171630Z 00000MPS 9999 -RA SCT040 09/06 Q1021 R25/290250 NOSIG RMK QFE727
Время наблюдения
2021-04-17T16:30:00Z
Температура C
9.0
Точка росы
6.0
Направление ветра
0
Скорость ветра (узлы)
0
Метео видимость
6.21
Явления погоды
-RA
Условия полета
VFR
Аэропорт подробнее: 

Авиационная погода в Вадсё

Регион: 
Погода METAR: 
ENVD 171320Z 05008KT 4000 DZ BKN004 01/00 Q1032
Время наблюдения
2021-04-17T13:20:00Z
Температура C
1.0
Точка росы
0.0
Направление ветра
50
Скорость ветра (узлы)
8
Метео видимость
2.49
Явления погоды
DZ
Условия полета
LIFR